sensor_id;sensor_type;location;lat;lon;timestamp;temperature;humidity
32446;DHT22;18899;50.748;7.102;2023-02-10T00:00:21;4.00;99.90
32446;DHT22;18899;50.748;7.102;2023-02-10T00:02:46;4.20;99.90
32446;DHT22;18899;50.748;7.102;2023-02-10T00:05:12;4.10;99.90
32446;DHT22;18899;50.748;7.102;2023-02-10T00:07:38;4.20;99.90
32446;DHT22;18899;50.748;7.102;2023-02-10T00:10:03;4.30;99.90
32446;DHT22;18899;50.748;7.102;2023-02-10T00:12:29;4.20;99.90
32446;DHT22;18899;50.748;7.102;2023-02-10T00:14:55;4.00;99.90
32446;DHT22;18899;50.748;7.102;2023-02-10T00:17:20;4.00;99.90
32446;DHT22;18899;50.748;7.102;2023-02-10T00:19:46;3.90;99.90
32446;DHT22;18899;50.748;7.102;2023-02-10T00:22:11;3.90;99.90
32446;DHT22;18899;50.748;7.102;2023-02-10T00:24:37;3.90;99.90
32446;DHT22;18899;50.748;7.102;2023-02-10T00:27:02;4.10;99.90
32446;DHT22;18899;50.748;7.102;2023-02-10T00:29:28;4.30;99.90
32446;DHT22;18899;50.748;7.102;2023-02-10T00:31:56;4.30;99.90
32446;DHT22;18899;50.748;7.102;2023-02-10T00:34:22;4.20;99.90
32446;DHT22;18899;50.748;7.102;2023-02-10T00:36:49;4.10;99.90
32446;DHT22;18899;50.748;7.102;2023-02-10T00:39:15;3.90;99.90
32446;DHT22;18899;50.748;7.102;2023-02-10T00:41:41;3.80;99.90
32446;DHT22;18899;50.748;7.102;2023-02-10T00:44:07;3.90;99.90
32446;DHT22;18899;50.748;7.102;2023-02-10T00:46:33;4.10;99.90
32446;DHT22;18899;50.748;7.102;2023-02-10T00:48:58;4.20;99.90
32446;DHT22;18899;50.748;7.102;2023-02-10T00:51:24;4.30;99.90
32446;DHT22;18899;50.748;7.102;2023-02-10T00:53:49;4.40;99.90
32446;DHT22;18899;50.748;7.102;2023-02-10T00:56:18;4.50;99.90
32446;DHT22;18899;50.748;7.102;2023-02-10T00:58:44;4.50;99.90
32446;DHT22;18899;50.748;7.102;2023-02-10T01:01:10;4.40;99.90
32446;DHT22;18899;50.748;7.102;2023-02-10T01:03:36;4.20;99.90
32446;DHT22;18899;50.748;7.102;2023-02-10T01:06:02;3.90;99.90
32446;DHT22;18899;50.748;7.102;2023-02-10T01:08:28;3.80;99.90
32446;DHT22;18899;50.748;7.102;2023-02-10T01:11:05;4.00;99.90
32446;DHT22;18899;50.748;7.102;2023-02-10T01:13:31;4.20;99.90
32446;DHT22;18899;50.748;7.102;2023-02-10T01:15:59;4.20;99.90
32446;DHT22;18899;50.748;7.102;2023-02-10T01:18:25;4.10;99.90
32446;DHT22;18899;50.748;7.102;2023-02-10T01:20:50;4.20;99.90
32446;DHT22;18899;50.748;7.102;2023-02-10T01:23:16;4.00;99.90
32446;DHT22;18899;50.748;7.102;2023-02-10T01:25:41;4.20;99.90
32446;DHT22;18899;50.748;7.102;2023-02-10T01:28:09;4.40;99.90
32446;DHT22;18899;50.748;7.102;2023-02-10T01:30:34;4.60;99.90
32446;DHT22;18899;50.748;7.102;2023-02-10T01:33:00;4.80;99.90
32446;DHT22;18899;50.748;7.102;2023-02-10T01:35:26;4.90;99.90
32446;DHT22;18899;50.748;7.102;2023-02-10T01:37:52;4.70;99.90
32446;DHT22;18899;50.748;7.102;2023-02-10T01:40:19;4.80;99.90
32446;DHT22;18899;50.748;7.102;2023-02-10T01:42:45;4.90;99.90
32446;DHT22;18899;50.748;7.102;2023-02-10T01:47:56;5.00;99.90
32446;DHT22;18899;50.748;7.102;2023-02-10T01:50:25;4.80;99.90
32446;DHT22;18899;50.748;7.102;2023-02-10T01:52:51;4.60;99.90
32446;DHT22;18899;50.748;7.102;2023-02-10T01:55:21;4.50;99.90
32446;DHT22;18899;50.748;7.102;2023-02-10T01:57:47;4.60;99.90
32446;DHT22;18899;50.748;7.102;2023-02-10T02:00:15;4.70;99.90
32446;DHT22;18899;50.748;7.102;2023-02-10T02:02:42;4.60;99.90
32446;DHT22;18899;50.748;7.102;2023-02-10T02:05:30;4.60;99.90
32446;DHT22;18899;50.748;7.102;2023-02-10T02:08:00;4.70;99.90
32446;DHT22;18899;50.748;7.102;2023-02-10T02:11:17;4.80;99.90
32446;DHT22;18899;50.748;7.102;2023-02-10T02:16:37;4.60;99.90
32446;DHT22;18899;50.748;7.102;2023-02-10T02:27:33;4.90;99.90
32446;DHT22;18899;50.748;7.102;2023-02-10T02:32:39;5.00;99.90
32446;DHT22;18899;50.748;7.102;2023-02-10T02:35:12;5.10;99.90
32446;DHT22;18899;50.748;7.102;2023-02-10T02:37:44;5.10;99.90
32446;DHT22;18899;50.748;7.102;2023-02-10T02:40:13;5.10;99.90
32446;DHT22;18899;50.748;7.102;2023-02-10T02:42:39;5.10;99.90
32446;DHT22;18899;50.748;7.102;2023-02-10T02:45:12;4.90;99.90
32446;DHT22;18899;50.748;7.102;2023-02-10T02:50:35;5.00;99.90
32446;DHT22;18899;50.748;7.102;2023-02-10T02:59:02;4.70;99.90
32446;DHT22;18899;50.748;7.102;2023-02-10T03:01:28;4.80;99.90
32446;DHT22;18899;50.748;7.102;2023-02-10T03:03:56;4.90;99.90
32446;DHT22;18899;50.748;7.102;2023-02-10T03:06:23;4.80;99.90
32446;DHT22;18899;50.748;7.102;2023-02-10T03:08:48;4.60;99.90
32446;DHT22;18899;50.748;7.102;2023-02-10T03:11:14;4.50;99.90
32446;DHT22;18899;50.748;7.102;2023-02-10T03:13:39;4.30;99.90
32446;DHT22;18899;50.748;7.102;2023-02-10T03:16:05;4.10;99.90
32446;DHT22;18899;50.748;7.102;2023-02-10T03:18:31;4.20;99.90
32446;DHT22;18899;50.748;7.102;2023-02-10T03:20:56;4.30;99.90
32446;DHT22;18899;50.748;7.102;2023-02-10T03:23:22;4.30;99.90
32446;DHT22;18899;50.748;7.102;2023-02-10T03:25:47;4.40;99.90
32446;DHT22;18899;50.748;7.102;2023-02-10T03:28:13;4.50;99.90
32446;DHT22;18899;50.748;7.102;2023-02-10T03:30:39;4.60;99.90
32446;DHT22;18899;50.748;7.102;2023-02-10T03:33:08;4.70;99.90
32446;DHT22;18899;50.748;7.102;2023-02-10T03:35:37;4.50;99.90
32446;DHT22;18899;50.748;7.102;2023-02-10T03:38:05;4.40;99.90
32446;DHT22;18899;50.748;7.102;2023-02-10T03:40:30;4.00;99.90
32446;DHT22;18899;50.748;7.102;2023-02-10T03:42:56;4.00;99.90
32446;DHT22;18899;50.748;7.102;2023-02-10T03:45:21;4.20;99.90
32446;DHT22;18899;50.748;7.102;2023-02-10T03:47:47;4.20;99.90
32446;DHT22;18899;50.748;7.102;2023-02-10T03:50:12;4.40;99.90
32446;DHT22;18899;50.748;7.102;2023-02-10T03:52:38;4.40;99.90
32446;DHT22;18899;50.748;7.102;2023-02-10T03:55:04;4.50;99.90
32446;DHT22;18899;50.748;7.102;2023-02-10T03:57:30;4.40;99.90
32446;DHT22;18899;50.748;7.102;2023-02-10T03:59:55;4.40;99.90
32446;DHT22;18899;50.748;7.102;2023-02-10T04:02:21;4.30;99.90
32446;DHT22;18899;50.748;7.102;2023-02-10T04:04:46;4.40;99.90
32446;DHT22;18899;50.748;7.102;2023-02-10T04:07:12;4.50;99.90
32446;DHT22;18899;50.748;7.102;2023-02-10T04:09:37;4.40;99.90
32446;DHT22;18899;50.748;7.102;2023-02-10T04:12:03;4.40;99.90
32446;DHT22;18899;50.748;7.102;2023-02-10T04:14:28;4.50;99.90
32446;DHT22;18899;50.748;7.102;2023-02-10T04:16:54;4.50;99.90
32446;DHT22;18899;50.748;7.102;2023-02-10T04:19:20;4.40;99.90
32446;DHT22;18899;50.748;7.102;2023-02-10T04:21:45;4.20;99.90
32446;DHT22;18899;50.748;7.102;2023-02-10T04:24:11;3.90;99.90
32446;DHT22;18899;50.748;7.102;2023-02-10T04:26:36;3.80;99.90
32446;DHT22;18899;50.748;7.102;2023-02-10T04:29:02;3.70;99.90
32446;DHT22;18899;50.748;7.102;2023-02-10T04:31:27;3.70;99.90
32446;DHT22;18899;50.748;7.102;2023-02-10T04:33:53;3.70;99.90
32446;DHT22;18899;50.748;7.102;2023-02-10T04:36:18;3.70;99.90
32446;DHT22;18899;50.748;7.102;2023-02-10T04:38:44;3.70;99.90
32446;DHT22;18899;50.748;7.102;2023-02-10T04:41:09;3.70;99.90
32446;DHT22;18899;50.748;7.102;2023-02-10T04:43:35;3.60;99.90
32446;DHT22;18899;50.748;7.102;2023-02-10T04:46:00;3.40;99.90
32446;DHT22;18899;50.748;7.102;2023-02-10T04:48:28;3.20;99.90
32446;DHT22;18899;50.748;7.102;2023-02-10T04:50:53;3.00;99.90
32446;DHT22;18899;50.748;7.102;2023-02-10T04:53:19;3.00;99.90
32446;DHT22;18899;50.748;7.102;2023-02-10T04:55:45;2.90;99.90
32446;DHT22;18899;50.748;7.102;2023-02-10T04:58:10;2.90;99.90
32446;DHT22;18899;50.748;7.102;2023-02-10T05:00:36;2.80;99.90
32446;DHT22;18899;50.748;7.102;2023-02-10T05:03:01;2.90;99.90
32446;DHT22;18899;50.748;7.102;2023-02-10T05:05:27;2.80;99.90
32446;DHT22;18899;50.748;7.102;2023-02-10T05:07:53;2.90;99.90
32446;DHT22;18899;50.748;7.102;2023-02-10T05:10:18;2.90;99.90
32446;DHT22;18899;50.748;7.102;2023-02-10T05:12:44;2.80;99.90
32446;DHT22;18899;50.748;7.102;2023-02-10T05:15:09;2.70;99.90
32446;DHT22;18899;50.748;7.102;2023-02-10T05:17:38;2.70;99.90
32446;DHT22;18899;50.748;7.102;2023-02-10T05:20:04;2.70;99.90
32446;DHT22;18899;50.748;7.102;2023-02-10T05:22:29;2.70;99.90
32446;DHT22;18899;50.748;7.102;2023-02-10T05:24:58;2.70;99.90
32446;DHT22;18899;50.748;7.102;2023-02-10T05:27:24;2.70;99.90
32446;DHT22;18899;50.748;7.102;2023-02-10T05:29:50;2.80;99.90
32446;DHT22;18899;50.748;7.102;2023-02-10T05:32:15;2.80;99.90
32446;DHT22;18899;50.748;7.102;2023-02-10T05:34:41;2.90;99.90
32446;DHT22;18899;50.748;7.102;2023-02-10T05:37:07;3.10;99.90
32446;DHT22;18899;50.748;7.102;2023-02-10T05:39:32;3.30;99.90
32446;DHT22;18899;50.748;7.102;2023-02-10T05:41:58;3.40;99.90
32446;DHT22;18899;50.748;7.102;2023-02-10T05:44:26;3.50;99.90
32446;DHT22;18899;50.748;7.102;2023-02-10T05:46:51;3.50;99.90
32446;DHT22;18899;50.748;7.102;2023-02-10T05:49:18;3.50;99.90
32446;DHT22;18899;50.748;7.102;2023-02-10T05:51:44;3.40;99.90
32446;DHT22;18899;50.748;7.102;2023-02-10T05:54:10;3.40;99.90
32446;DHT22;18899;50.748;7.102;2023-02-10T05:56:36;3.40;99.90
32446;DHT22;18899;50.748;7.102;2023-02-10T05:59:02;3.20;99.90
32446;DHT22;18899;50.748;7.102;2023-02-10T06:01:28;3.10;99.90
32446;DHT22;18899;50.748;7.102;2023-02-10T06:03:54;3.10;99.90
32446;DHT22;18899;50.748;7.102;2023-02-10T06:06:20;3.00;99.90
32446;DHT22;18899;50.748;7.102;2023-02-10T06:08:45;3.00;99.90
32446;DHT22;18899;50.748;7.102;2023-02-10T06:11:11;2.90;99.90
32446;DHT22;18899;50.748;7.102;2023-02-10T06:13:37;2.80;99.90
32446;DHT22;18899;50.748;7.102;2023-02-10T06:16:03;2.60;99.90
32446;DHT22;18899;50.748;7.102;2023-02-10T06:18:29;2.40;99.90
32446;DHT22;18899;50.748;7.102;2023-02-10T06:20:55;2.20;99.90
32446;DHT22;18899;50.748;7.102;2023-02-10T06:23:22;2.10;99.90
32446;DHT22;18899;50.748;7.102;2023-02-10T06:25:47;2.00;99.90
32446;DHT22;18899;50.748;7.102;2023-02-10T06:28:13;2.10;99.90
32446;DHT22;18899;50.748;7.102;2023-02-10T06:30:40;2.20;99.90
32446;DHT22;18899;50.748;7.102;2023-02-10T06:33:06;2.20;99.90
32446;DHT22;18899;50.748;7.102;2023-02-10T06:35:31;2.30;99.90
32446;DHT22;18899;50.748;7.102;2023-02-10T06:37:57;2.40;99.90
32446;DHT22;18899;50.748;7.102;2023-02-10T06:40:23;2.40;99.90
32446;DHT22;18899;50.748;7.102;2023-02-10T06:42:48;2.60;99.90
32446;DHT22;18899;50.748;7.102;2023-02-10T06:45:14;2.50;99.90
32446;DHT22;18899;50.748;7.102;2023-02-10T06:47:40;2.60;99.90
32446;DHT22;18899;50.748;7.102;2023-02-10T06:50:05;2.60;99.90
32446;DHT22;18899;50.748;7.102;2023-02-10T06:52:32;2.70;99.90
32446;DHT22;18899;50.748;7.102;2023-02-10T06:55:00;2.80;99.90
32446;DHT22;18899;50.748;7.102;2023-02-10T06:57:25;2.90;99.90
32446;DHT22;18899;50.748;7.102;2023-02-10T06:59:51;3.00;99.90
32446;DHT22;18899;50.748;7.102;2023-02-10T07:02:18;3.20;99.90
32446;DHT22;18899;50.748;7.102;2023-02-10T07:04:44;3.20;99.90
32446;DHT22;18899;50.748;7.102;2023-02-10T07:07:09;3.40;99.90
32446;DHT22;18899;50.748;7.102;2023-02-10T07:09:35;3.50;99.90
32446;DHT22;18899;50.748;7.102;2023-02-10T07:12:00;3.40;99.90
32446;DHT22;18899;50.748;7.102;2023-02-10T07:14:26;3.50;99.90
32446;DHT22;18899;50.748;7.102;2023-02-10T07:16:52;3.50;99.90
32446;DHT22;18899;50.748;7.102;2023-02-10T07:19:17;3.40;99.90
32446;DHT22;18899;50.748;7.102;2023-02-10T07:21:43;3.40;99.90
32446;DHT22;18899;50.748;7.102;2023-02-10T07:24:08;3.70;99.90
32446;DHT22;18899;50.748;7.102;2023-02-10T07:26:34;3.80;99.90
32446;DHT22;18899;50.748;7.102;2023-02-10T07:28:59;3.80;99.90
32446;DHT22;18899;50.748;7.102;2023-02-10T07:31:25;3.60;99.90
32446;DHT22;18899;50.748;7.102;2023-02-10T07:33:51;3.60;99.90
32446;DHT22;18899;50.748;7.102;2023-02-10T07:36:16;3.80;99.90
32446;DHT22;18899;50.748;7.102;2023-02-10T07:38:42;3.80;99.90
32446;DHT22;18899;50.748;7.102;2023-02-10T07:41:08;3.80;99.90
32446;DHT22;18899;50.748;7.102;2023-02-10T07:43:34;3.80;99.90
32446;DHT22;18899;50.748;7.102;2023-02-10T07:45:59;4.00;99.90
32446;DHT22;18899;50.748;7.102;2023-02-10T07:48:25;4.10;99.90
32446;DHT22;18899;50.748;7.102;2023-02-10T07:50:51;4.10;99.90
32446;DHT22;18899;50.748;7.102;2023-02-10T07:53:20;4.20;99.90
32446;DHT22;18899;50.748;7.102;2023-02-10T07:55:46;4.20;99.90
32446;DHT22;18899;50.748;7.102;2023-02-10T07:58:12;4.10;99.90
32446;DHT22;18899;50.748;7.102;2023-02-10T08:00:38;4.00;99.90
32446;DHT22;18899;50.748;7.102;2023-02-10T08:03:04;3.80;99.90
32446;DHT22;18899;50.748;7.102;2023-02-10T08:05:30;3.90;99.90
32446;DHT22;18899;50.748;7.102;2023-02-10T08:07:56;4.10;99.90
32446;DHT22;18899;50.748;7.102;2023-02-10T08:10:22;4.10;99.90
32446;DHT22;18899;50.748;7.102;2023-02-10T08:12:47;4.00;99.90
32446;DHT22;18899;50.748;7.102;2023-02-10T08:15:13;4.10;99.90
32446;DHT22;18899;50.748;7.102;2023-02-10T08:17:42;4.10;99.90
32446;DHT22;18899;50.748;7.102;2023-02-10T08:20:08;4.10;99.90
32446;DHT22;18899;50.748;7.102;2023-02-10T08:22:34;4.20;99.90
32446;DHT22;18899;50.748;7.102;2023-02-10T08:25:00;4.10;99.90
32446;DHT22;18899;50.748;7.102;2023-02-10T08:27:25;4.30;99.90
32446;DHT22;18899;50.748;7.102;2023-02-10T08:29:51;4.40;99.90
32446;DHT22;18899;50.748;7.102;2023-02-10T08:32:16;4.50;99.90
32446;DHT22;18899;50.748;7.102;2023-02-10T08:34:46;4.50;99.90
32446;DHT22;18899;50.748;7.102;2023-02-10T08:37:12;4.40;99.90
32446;DHT22;18899;50.748;7.102;2023-02-10T08:39:37;4.50;99.90
32446;DHT22;18899;50.748;7.102;2023-02-10T08:42:03;4.50;99.90
32446;DHT22;18899;50.748;7.102;2023-02-10T08:44:28;4.70;99.90
32446;DHT22;18899;50.748;7.102;2023-02-10T08:46:54;4.80;99.90
32446;DHT22;18899;50.748;7.102;2023-02-10T08:49:20;4.90;99.90
32446;DHT22;18899;50.748;7.102;2023-02-10T08:51:45;5.00;99.90
32446;DHT22;18899;50.748;7.102;2023-02-10T08:54:11;5.20;99.90
32446;DHT22;18899;50.748;7.102;2023-02-10T08:56:36;5.30;99.90
32446;DHT22;18899;50.748;7.102;2023-02-10T08:59:02;5.50;99.90
32446;DHT22;18899;50.748;7.102;2023-02-10T09:01:27;5.80;99.90
32446;DHT22;18899;50.748;7.102;2023-02-10T09:03:54;6.10;99.90
32446;DHT22;18899;50.748;7.102;2023-02-10T09:06:27;6.60;99.90
32446;DHT22;18899;50.748;7.102;2023-02-10T09:08:53;6.90;99.90
32446;DHT22;18899;50.748;7.102;2023-02-10T09:11:20;7.30;99.90
32446;DHT22;18899;50.748;7.102;2023-02-10T09:13:47;7.70;99.90
32446;DHT22;18899;50.748;7.102;2023-02-10T09:16:13;8.20;99.90
32446;DHT22;18899;50.748;7.102;2023-02-10T09:18:39;8.90;99.90
32446;DHT22;18899;50.748;7.102;2023-02-10T09:21:04;9.40;99.90
32446;DHT22;18899;50.748;7.102;2023-02-10T09:23:30;9.60;99.90
32446;DHT22;18899;50.748;7.102;2023-02-10T09:25:56;9.70;99.90
32446;DHT22;18899;50.748;7.102;2023-02-10T09:28:22;10.00;99.40
32446;DHT22;18899;50.748;7.102;2023-02-10T09:30:48;10.30;96.90
32446;DHT22;18899;50.748;7.102;2023-02-10T09:33:15;10.40;94.40
32446;DHT22;18899;50.748;7.102;2023-02-10T09:35:40;10.70;93.00
32446;DHT22;18899;50.748;7.102;2023-02-10T09:38:07;11.10;92.30
32446;DHT22;18899;50.748;7.102;2023-02-10T09:40:37;11.30;91.40
32446;DHT22;18899;50.748;7.102;2023-02-10T09:43:24;11.50;89.40
32446;DHT22;18899;50.748;7.102;2023-02-10T09:46:01;11.80;88.60
32446;DHT22;18899;50.748;7.102;2023-02-10T09:51:43;12.40;80.30
32446;DHT22;18899;50.748;7.102;2023-02-10T09:54:13;12.20;81.30
32446;DHT22;18899;50.748;7.102;2023-02-10T09:56:38;12.10;81.10
32446;DHT22;18899;50.748;7.102;2023-02-10T09:59:08;12.30;80.60
32446;DHT22;18899;50.748;7.102;2023-02-10T10:01:40;12.40;79.40
32446;DHT22;18899;50.748;7.102;2023-02-10T10:04:13;13.00;78.40
32446;DHT22;18899;50.748;7.102;2023-02-10T10:06:46;13.80;75.90
32446;DHT22;18899;50.748;7.102;2023-02-10T10:09:37;14.80;71.20
32446;DHT22;18899;50.748;7.102;2023-02-10T10:12:10;15.00;68.80
32446;DHT22;18899;50.748;7.102;2023-02-10T10:14:40;14.80;70.00
32446;DHT22;18899;50.748;7.102;2023-02-10T10:23:13;14.70;67.20
32446;DHT22;18899;50.748;7.102;2023-02-10T10:25:47;13.60;70.80
32446;DHT22;18899;50.748;7.102;2023-02-10T10:28:47;13.20;72.50
32446;DHT22;18899;50.748;7.102;2023-02-10T10:31:20;13.00;75.60
32446;DHT22;18899;50.748;7.102;2023-02-10T10:36:38;12.30;79.20
32446;DHT22;18899;50.748;7.102;2023-02-10T10:39:30;12.50;78.40
32446;DHT22;18899;50.748;7.102;2023-02-10T10:41:57;12.40;77.10
32446;DHT22;18899;50.748;7.102;2023-02-10T10:44:24;12.40;77.30
32446;DHT22;18899;50.748;7.102;2023-02-10T10:49:36;12.00;79.80
32446;DHT22;18899;50.748;7.102;2023-02-10T10:52:12;11.90;80.20
32446;DHT22;18899;50.748;7.102;2023-02-10T10:54:44;11.90;81.40
32446;DHT22;18899;50.748;7.102;2023-02-10T10:57:12;11.30;84.50
32446;DHT22;18899;50.748;7.102;2023-02-10T10:59:40;10.60;89.00
32446;DHT22;18899;50.748;7.102;2023-02-10T11:02:20;10.70;89.90
32446;DHT22;18899;50.748;7.102;2023-02-10T11:04:58;10.70;91.30
32446;DHT22;18899;50.748;7.102;2023-02-10T11:07:24;10.30;92.70
32446;DHT22;18899;50.748;7.102;2023-02-10T11:09:52;10.70;91.40
32446;DHT22;18899;50.748;7.102;2023-02-10T11:12:34;11.00;91.30
32446;DHT22;18899;50.748;7.102;2023-02-10T11:15:23;11.30;90.60
32446;DHT22;18899;50.748;7.102;2023-02-10T11:17:53;11.40;89.30
32446;DHT22;18899;50.748;7.102;2023-02-10T11:20:25;11.40;90.20
32446;DHT22;18899;50.748;7.102;2023-02-10T11:23:00;11.50;88.60
32446;DHT22;18899;50.748;7.102;2023-02-10T11:25:31;11.50;88.10
32446;DHT22;18899;50.748;7.102;2023-02-10T11:27:59;11.30;91.60
32446;DHT22;18899;50.748;7.102;2023-02-10T11:30:34;11.00;92.50
32446;DHT22;18899;50.748;7.102;2023-02-10T11:33:01;10.70;92.40
32446;DHT22;18899;50.748;7.102;2023-02-10T11:35:29;10.40;94.40
32446;DHT22;18899;50.748;7.102;2023-02-10T11:38:00;10.30;97.60
32446;DHT22;18899;50.748;7.102;2023-02-10T11:40:29;10.50;94.90
32446;DHT22;18899;50.748;7.102;2023-02-10T11:42:57;10.70;94.80
32446;DHT22;18899;50.748;7.102;2023-02-10T11:45:29;10.70;95.30
32446;DHT22;18899;50.748;7.102;2023-02-10T11:48:13;10.60;97.10
32446;DHT22;18899;50.748;7.102;2023-02-10T11:50:39;10.10;99.30
32446;DHT22;18899;50.748;7.102;2023-02-10T11:53:04;9.70;99.90
32446;DHT22;18899;50.748;7.102;2023-02-10T11:55:50;9.80;99.90
32446;DHT22;18899;50.748;7.102;2023-02-10T12:01:40;10.20;99.90
32446;DHT22;18899;50.748;7.102;2023-02-10T12:07:18;9.90;99.90
32446;DHT22;18899;50.748;7.102;2023-02-10T12:09:54;10.00;99.90
32446;DHT22;18899;50.748;7.102;2023-02-10T12:12:39;10.10;99.90
32446;DHT22;18899;50.748;7.102;2023-02-10T12:20:26;10.20;99.90
32446;DHT22;18899;50.748;7.102;2023-02-10T12:25:33;10.50;99.90
32446;DHT22;18899;50.748;7.102;2023-02-10T12:31:20;10.40;99.70
32446;DHT22;18899;50.748;7.102;2023-02-10T12:37:10;10.20;99.90
32446;DHT22;18899;50.748;7.102;2023-02-10T12:40:14;10.20;99.90
32446;DHT22;18899;50.748;7.102;2023-02-10T12:43:01;10.10;99.60
32446;DHT22;18899;50.748;7.102;2023-02-10T12:45:48;10.00;99.90
32446;DHT22;18899;50.748;7.102;2023-02-10T12:48:32;10.10;99.10
32446;DHT22;18899;50.748;7.102;2023-02-10T12:51:23;10.20;99.00
32446;DHT22;18899;50.748;7.102;2023-02-10T12:54:00;10.10;99.10
32446;DHT22;18899;50.748;7.102;2023-02-10T12:56:34;10.40;97.90
32446;DHT22;18899;50.748;7.102;2023-02-10T12:59:09;10.50;98.90
32446;DHT22;18899;50.748;7.102;2023-02-10T13:01:58;10.50;95.60
32446;DHT22;18899;50.748;7.102;2023-02-10T13:04:31;10.40;97.40
32446;DHT22;18899;50.748;7.102;2023-02-10T13:07:04;10.20;96.00
32446;DHT22;18899;50.748;7.102;2023-02-10T13:09:39;10.00;96.20
32446;DHT22;18899;50.748;7.102;2023-02-10T13:12:17;10.00;95.60
32446;DHT22;18899;50.748;7.102;2023-02-10T13:14:45;10.00;96.50
32446;DHT22;18899;50.748;7.102;2023-02-10T13:17:13;10.00;96.70
32446;DHT22;18899;50.748;7.102;2023-02-10T13:19:58;10.10;95.80
32446;DHT22;18899;50.748;7.102;2023-02-10T13:25:02;10.20;96.10
32446;DHT22;18899;50.748;7.102;2023-02-10T13:35:42;10.30;94.20
32446;DHT22;18899;50.748;7.102;2023-02-10T13:38:12;10.10;93.40
32446;DHT22;18899;50.748;7.102;2023-02-10T13:40:56;10.20;93.90
32446;DHT22;18899;50.748;7.102;2023-02-10T13:43:43;10.20;93.90
32446;DHT22;18899;50.748;7.102;2023-02-10T13:46:20;10.00;94.20
32446;DHT22;18899;50.748;7.102;2023-02-10T13:48:55;9.80;94.10
32446;DHT22;18899;50.748;7.102;2023-02-10T13:51:33;9.70;93.60
32446;DHT22;18899;50.748;7.102;2023-02-10T13:54:00;9.90;93.60
32446;DHT22;18899;50.748;7.102;2023-02-10T13:56:27;9.80;93.80
32446;DHT22;18899;50.748;7.102;2023-02-10T13:59:22;9.80;93.80
32446;DHT22;18899;50.748;7.102;2023-02-10T14:02:22;9.80;94.10
32446;DHT22;18899;50.748;7.102;2023-02-10T14:04:53;9.70;94.90
32446;DHT22;18899;50.748;7.102;2023-02-10T14:12:57;10.00;94.60
32446;DHT22;18899;50.748;7.102;2023-02-10T14:15:29;10.10;93.30
32446;DHT22;18899;50.748;7.102;2023-02-10T14:18:01;10.10;93.40
32446;DHT22;18899;50.748;7.102;2023-02-10T14:20:31;10.10;93.60
32446;DHT22;18899;50.748;7.102;2023-02-10T14:22:57;10.00;94.00
32446;DHT22;18899;50.748;7.102;2023-02-10T14:25:41;9.90;94.20
32446;DHT22;18899;50.748;7.102;2023-02-10T14:28:22;10.00;95.20
32446;DHT22;18899;50.748;7.102;2023-02-10T14:30:55;9.90;95.00
32446;DHT22;18899;50.748;7.102;2023-02-10T14:33:30;9.90;95.80
32446;DHT22;18899;50.748;7.102;2023-02-10T14:35:59;9.70;96.70
32446;DHT22;18899;50.748;7.102;2023-02-10T14:38:27;9.80;95.90
32446;DHT22;18899;50.748;7.102;2023-02-10T14:40:54;9.80;96.70
32446;DHT22;18899;50.748;7.102;2023-02-10T14:43:24;9.90;96.60
32446;DHT22;18899;50.748;7.102;2023-02-10T14:45:51;9.60;97.30
32446;DHT22;18899;50.748;7.102;2023-02-10T14:48:18;9.60;97.50
32446;DHT22;18899;50.748;7.102;2023-02-10T14:51:06;9.60;98.10
32446;DHT22;18899;50.748;7.102;2023-02-10T14:53:36;9.50;98.30
32446;DHT22;18899;50.748;7.102;2023-02-10T14:56:03;9.60;98.40
32446;DHT22;18899;50.748;7.102;2023-02-10T14:58:29;9.60;98.60
32446;DHT22;18899;50.748;7.102;2023-02-10T15:03:42;9.20;99.90
32446;DHT22;18899;50.748;7.102;2023-02-10T15:06:08;9.40;99.90
32446;DHT22;18899;50.748;7.102;2023-02-10T15:08:51;9.60;99.90
32446;DHT22;18899;50.748;7.102;2023-02-10T15:11:27;9.50;99.90
32446;DHT22;18899;50.748;7.102;2023-02-10T15:14:17;9.60;99.40
32446;DHT22;18899;50.748;7.102;2023-02-10T15:16:45;9.50;99.90
32446;DHT22;18899;50.748;7.102;2023-02-10T15:19:16;9.30;99.90
32446;DHT22;18899;50.748;7.102;2023-02-10T15:21:42;9.20;99.90
32446;DHT22;18899;50.748;7.102;2023-02-10T15:24:22;9.40;99.90
32446;DHT22;18899;50.748;7.102;2023-02-10T15:26:48;9.30;99.90
32446;DHT22;18899;50.748;7.102;2023-02-10T15:29:15;9.20;99.90
32446;DHT22;18899;50.748;7.102;2023-02-10T15:31:50;9.10;99.90
32446;DHT22;18899;50.748;7.102;2023-02-10T15:34:25;9.10;99.90
32446;DHT22;18899;50.748;7.102;2023-02-10T15:36:58;9.10;99.90
32446;DHT22;18899;50.748;7.102;2023-02-10T15:39:27;8.90;99.90
32446;DHT22;18899;50.748;7.102;2023-02-10T15:44:29;8.90;99.90
32446;DHT22;18899;50.748;7.102;2023-02-10T15:49:46;9.00;99.90
32446;DHT22;18899;50.748;7.102;2023-02-10T15:52:21;8.80;99.90
32446;DHT22;18899;50.748;7.102;2023-02-10T15:54:48;8.80;99.90
32446;DHT22;18899;50.748;7.102;2023-02-10T15:57:17;8.70;99.90
32446;DHT22;18899;50.748;7.102;2023-02-10T15:59:43;8.60;99.90
32446;DHT22;18899;50.748;7.102;2023-02-10T16:02:12;8.60;99.90
32446;DHT22;18899;50.748;7.102;2023-02-10T16:04:38;8.60;99.90
32446;DHT22;18899;50.748;7.102;2023-02-10T16:07:05;8.50;99.90
32446;DHT22;18899;50.748;7.102;2023-02-10T16:09:32;8.40;99.90
32446;DHT22;18899;50.748;7.102;2023-02-10T16:11:59;8.40;99.90
32446;DHT22;18899;50.748;7.102;2023-02-10T16:14:25;8.30;99.90
32446;DHT22;18899;50.748;7.102;2023-02-10T16:16:54;8.20;99.90
32446;DHT22;18899;50.748;7.102;2023-02-10T16:19:22;8.10;99.90
32446;DHT22;18899;50.748;7.102;2023-02-10T16:21:49;8.10;99.90
32446;DHT22;18899;50.748;7.102;2023-02-10T16:24:17;8.10;99.90
32446;DHT22;18899;50.748;7.102;2023-02-10T16:26:44;8.30;99.90
32446;DHT22;18899;50.748;7.102;2023-02-10T16:29:25;8.30;99.90
32446;DHT22;18899;50.748;7.102;2023-02-10T16:31:51;8.20;99.90
32446;DHT22;18899;50.748;7.102;2023-02-10T16:34:17;8.00;99.90
32446;DHT22;18899;50.748;7.102;2023-02-10T16:36:43;8.10;99.90
32446;DHT22;18899;50.748;7.102;2023-02-10T16:39:15;8.00;99.90
32446;DHT22;18899;50.748;7.102;2023-02-10T16:41:41;8.00;99.90
32446;DHT22;18899;50.748;7.102;2023-02-10T16:44:07;7.90;99.90
32446;DHT22;18899;50.748;7.102;2023-02-10T16:46:33;7.90;99.90
32446;DHT22;18899;50.748;7.102;2023-02-10T16:48:58;7.80;99.90
32446;DHT22;18899;50.748;7.102;2023-02-10T16:51:24;8.10;99.90
32446;DHT22;18899;50.748;7.102;2023-02-10T16:53:49;8.20;99.90
32446;DHT22;18899;50.748;7.102;2023-02-10T16:56:20;8.10;99.90
32446;DHT22;18899;50.748;7.102;2023-02-10T16:58:46;8.10;99.90
32446;DHT22;18899;50.748;7.102;2023-02-10T17:01:11;8.20;99.90
32446;DHT22;18899;50.748;7.102;2023-02-10T17:03:38;8.30;99.90
32446;DHT22;18899;50.748;7.102;2023-02-10T17:06:03;8.30;99.90
32446;DHT22;18899;50.748;7.102;2023-02-10T17:08:29;8.30;99.90
32446;DHT22;18899;50.748;7.102;2023-02-10T17:10:55;8.40;99.90
32446;DHT22;18899;50.748;7.102;2023-02-10T17:13:21;8.50;99.90
32446;DHT22;18899;50.748;7.102;2023-02-10T17:15:46;8.50;99.90
32446;DHT22;18899;50.748;7.102;2023-02-10T17:18:13;8.50;99.90